^^
Datos históricos de la estación: Murcia-Puente Tocinos
Diario Informe para Mayo 9, 2019 Unidades:  Ambas    Ingés   Métrico
Diario Semanal Mensual Anual
  Máxima: Mínima: Promedio:
Temperatura: 83.5 °F /  28.6 °C 64.4 °F /  18 °C 72 °F /  22.2 °C
Punto de rocio: 65.1 °F /  18.4 °C 59.5 °F /  15.3 °C 62.1 °F /  16.7 °C
Humedad: 85% 49.1% 72%
Velocidad viento: 8.5mph /  13.7km/h - 3.3mph /  5.3km/h
Racha viento: 15.2mph /  24.5km/h - -
Viento- - SSE
Presión: 30 in /  1017.0 hPa 29.9 in /  1013.1 hPa -
Precipitación: 0 in /  0.0 mm    
 
 
Tabla de datos para Mayo 9, 2019
Hora Temperatura Punto de rocio Presión Viento Velocidad viento Racha viento Humedad Intensidad lluvia(por hora) Nubes
00:04 69.8 °F /  21 °C 61.5 °F /  16.4 °C 30in /  1016.7hPa NO 2.4mph /  3.9km/h 5mph /  8km/h 75% 0in /  0.0mm
00:09 69.6 °F /  20.9 °C 61.3 °F /  16.3 °C 30in /  1016.7hPa NO 2.2mph /  3.6km/h 4mph /  6.4km/h 75% 0in /  0.0mm
00:14 69.6 °F /  20.9 °C 61.3 °F /  16.3 °C 30in /  1016.7hPa NO 1.4mph /  2.2km/h 3.5mph /  5.6km/h 75.3% 0in /  0.0mm
00:19 69.6 °F /  20.9 °C 61.3 °F /  16.3 °C 30in /  1016.7hPa NO 1.5mph /  2.4km/h 3.5mph /  5.6km/h 75.2% 0in /  0.0mm
00:24 69.4 °F /  20.8 °C 61.5 °F /  16.4 °C 30in /  1016.6hPa NO 1.8mph /  2.9km/h 3mph /  4.8km/h 76% 0in /  0.0mm
00:29 69.4 °F /  20.8 °C 61.5 °F /  16.4 °C 30in /  1016.6hPa NO 1.5mph /  2.4km/h 2.4mph /  3.9km/h 76% 0in /  0.0mm
00:34 69.4 °F /  20.8 °C 61.5 °F /  16.4 °C 30in /  1016.6hPa Calm   3.5mph /  5.6km/h 76% 0in /  0.0mm
00:39 69.4 °F /  20.8 °C 61.5 °F /  16.4 °C 30in /  1016.5hPa NO 0.3mph /  0.5km/h 3.5mph /  5.6km/h 76% 0in /  0.0mm
00:44 69.4 °F /  20.8 °C 61.5 °F /  16.4 °C 30in /  1016.5hPa North 1.8mph /  2.9km/h 4.7mph /  7.6km/h 76% 0in /  0.0mm
00:49 69.4 °F /  20.8 °C 61.5 °F /  16.4 °C 30in /  1016.5hPa SSE 2mph /  3.2km/h 5mph /  8km/h 76% 0in /  0.0mm
00:54 69.3 °F /  20.7 °C 61.3 °F /  16.3 °C 30in /  1016.4hPa SE 2.9mph /  4.7km/h 5mph /  8km/h 76% 0in /  0.0mm
00:59 69.3 °F /  20.7 °C 61.3 °F /  16.3 °C 30in /  1016.4hPa SE 2.8mph /  4.5km/h 5mph /  8km/h 76% 0in /  0.0mm
01:04 69.3 °F /  20.7 °C 61.3 °F /  16.3 °C 30in /  1016.4hPa SE 2.4mph /  3.9km/h 4.7mph /  7.6km/h 76% 0in /  0.0mm
01:09 69.1 °F /  20.6 °C 61.5 °F /  16.4 °C 30in /  1016.3hPa SE 2.3mph /  3.7km/h 5mph /  8km/h 76.7% 0in /  0.0mm
01:14 69.1 °F /  20.6 °C 61.5 °F /  16.4 °C 30in /  1016.3hPa SE 2mph /  3.2km/h 4.6mph /  7.4km/h 76.9% 0in /  0.0mm
01:19 69.1 °F /  20.6 °C 61.5 °F /  16.4 °C 30in /  1016.3hPa SSE 2.1mph /  3.3km/h 5mph /  8km/h 77% 0in /  0.0mm
01:24 69.1 °F /  20.6 °C 61.5 °F /  16.4 °C 30in /  1016.1hPa SSE 2.4mph /  3.9km/h 5mph /  8km/h 77% 0in /  0.0mm
01:29 69.1 °F /  20.6 °C 61.5 °F /  16.4 °C 30in /  1016.1hPa SSE 2.3mph /  3.7km/h 5mph /  8km/h 77% 0in /  0.0mm
01:34 69.1 °F /  20.6 °C 61.5 °F /  16.4 °C 30in /  1016.1hPa SSE 2mph /  3.2km/h 3mph /  4.8km/h 77% 0in /  0.0mm
01:39 68.7 °F /  20.4 °C 61.3 °F /  16.3 °C 30in /  1016.1hPa Sur 2mph /  3.2km/h 3.5mph /  5.6km/h 77% 0in /  0.0mm
01:44 68.5 °F /  20.3 °C 61.2 °F /  16.2 °C 30in /  1016.1hPa OSO 1.8mph /  2.9km/h 3.5mph /  5.6km/h 77.5% 0in /  0.0mm
01:49 68.4 °F /  20.2 °C 61.2 °F /  16.2 °C 30in /  1016.1hPa OSO 1.5mph /  2.4km/h 3mph /  4.8km/h 78% 0in /  0.0mm
01:54 68.2 °F /  20.1 °C 61.2 °F /  16.2 °C 30in /  1016.1hPa Calm   2.3mph /  3.7km/h 78.4% 0in /  0.0mm
01:59 68 °F /  20 °C 61.2 °F /  16.2 °C 30in /  1016.1hPa Calm   2.9mph /  4.7km/h 79% 0in /  0.0mm
02:04 68 °F /  20 °C 61.2 °F /  16.2 °C 30in /  1016.2hPa Calm   3mph /  4.8km/h 79% 0in /  0.0mm
02:09 67.8 °F /  19.9 °C 61.2 °F /  16.2 °C 30in /  1016.2hPa OSO 0.2mph /  0.4km/h 2.9mph /  4.7km/h 79% 0in /  0.0mm
02:14 67.8 °F /  19.9 °C 61.2 °F /  16.2 °C 30in /  1016.2hPa Oeste 1.4mph /  2.2km/h 3.5mph /  5.6km/h 79.5% 0in /  0.0mm
02:19 67.6 °F /  19.8 °C 61.2 °F /  16.2 °C 30in /  1016.2hPa Oeste 1.1mph /  1.8km/h 3mph /  4.8km/h 80% 0in /  0.0mm
02:24 67.6 °F /  19.8 °C 61.2 °F /  16.2 °C 30in /  1016.0hPa Calm   2.9mph /  4.7km/h 80% 0in /  0.0mm
02:29 67.5 °F /  19.7 °C 61.2 °F /  16.2 °C 30in /  1016.0hPa Oeste 0.2mph /  0.4km/h 3mph /  4.8km/h 80% 0in /  0.0mm
02:34 67.5 °F /  19.7 °C 61.2 °F /  16.2 °C 30in /  1016.0hPa Oeste 1.4mph /  2.2km/h 2.4mph /  3.9km/h 80% 0in /  0.0mm
02:39 67.5 °F /  19.7 °C 61.2 °F /  16.2 °C 30in /  1016.0hPa Oeste 1.1mph /  1.8km/h 2.3mph /  3.7km/h 80% 0in /  0.0mm
02:44 67.5 °F /  19.7 °C 61.2 °F /  16.2 °C 30in /  1016.0hPa Calm   2mph /  3.2km/h 80% 0in /  0.0mm
02:49 67.5 °F /  19.7 °C 61.2 °F /  16.2 °C 30in /  1016.0hPa Calm     80% 0in /  0.0mm
02:54 67.5 °F /  19.7 °C 61.2 °F /  16.2 °C 30in /  1016.0hPa Calm     80% 0in /  0.0mm
02:59 67.5 °F /  19.7 °C 61.2 °F /  16.2 °C 30in /  1016.0hPa Calm   2.4mph /  3.9km/h 80% 0in /  0.0mm
03:04 67.5 °F /  19.7 °C 61.2 °F /  16.2 °C 30in /  1016.0hPa Calm   2.4mph /  3.9km/h 80% 0in /  0.0mm
03:09 67.5 °F /  19.7 °C 61 °F /  16.1 °C 30in /  1015.9hPa Oeste 0.2mph /  0.4km/h 2.4mph /  3.9km/h 80% 0in /  0.0mm
03:14 67.3 °F /  19.6 °C 61 °F /  16.1 °C 30in /  1015.9hPa Oeste 1.4mph /  2.2km/h 2.9mph /  4.7km/h 80% 0in /  0.0mm
03:19 67.3 °F /  19.6 °C 60.8 °F /  16 °C 30in /  1015.9hPa Oeste 1.5mph /  2.4km/h 3mph /  4.8km/h 80% 0in /  0.0mm
03:24 67.1 °F /  19.5 °C 60.8 °F /  16 °C 30in /  1015.7hPa Oeste 1.8mph /  2.9km/h 3mph /  4.8km/h 80% 0in /  0.0mm
03:29 66.9 °F /  19.4 °C 60.6 °F /  15.9 °C 30in /  1015.7hPa Oeste 1.5mph /  2.4km/h 2mph /  3.2km/h 80% 0in /  0.0mm
03:34 66.9 °F /  19.4 °C 60.4 °F /  15.8 °C 30in /  1015.7hPa Calm   1.4mph /  2.3km/h 80% 0in /  0.0mm
03:39 66.9 °F /  19.4 °C 60.6 °F /  15.9 °C 30in /  1015.6hPa Calm   1.4mph /  2.3km/h 80.3% 0in /  0.0mm
03:44 66.7 °F /  19.3 °C 60.6 °F /  15.9 °C 30in /  1015.6hPa Calm   1mph /  1.6km/h 81% 0in /  0.0mm
03:49 66.7 °F /  19.3 °C 60.6 °F /  15.9 °C 30in /  1015.6hPa Oeste 0.2mph /  0.4km/h 2.9mph /  4.7km/h 81% 0in /  0.0mm
03:54 66.6 °F /  19.2 °C 60.4 °F /  15.8 °C 30in /  1015.6hPa Oeste 1.4mph /  2.2km/h 3mph /  4.8km/h 81% 0in /  0.0mm
03:59 66.4 °F /  19.1 °C 60.4 °F /  15.8 °C 30in /  1015.6hPa Oeste 1.4mph /  2.2km/h 2.9mph /  4.7km/h 81% 0in /  0.0mm
04:04 66 °F /  18.9 °C 60.3 °F /  15.7 °C 30in /  1015.6hPa Oeste 1.4mph /  2.2km/h 3mph /  4.8km/h 81.5% 0in /  0.0mm
04:09 65.8 °F /  18.8 °C 60.3 °F /  15.7 °C 30in /  1015.6hPa Oeste 1.4mph /  2.2km/h 3mph /  4.8km/h 82% 0in /  0.0mm
04:14 65.8 °F /  18.8 °C 60.3 °F /  15.7 °C 30in /  1015.6hPa Oeste 1.4mph /  2.2km/h 2mph /  3.2km/h 82.3% 0in /  0.0mm
04:19 65.7 °F /  18.7 °C 60.4 °F /  15.8 °C 30in /  1015.6hPa Oeste 1.2mph /  1.9km/h 2.3mph /  3.7km/h 83% 0in /  0.0mm
04:24 65.7 °F /  18.7 °C 60.4 °F /  15.8 °C 30in /  1015.5hPa Calm   2.3mph /  3.7km/h 83% 0in /  0.0mm
04:29 65.7 °F /  18.7 °C 60.4 °F /  15.8 °C 30in /  1015.5hPa Calm   2.3mph /  3.7km/h 83% 0in /  0.0mm
04:34 65.7 °F /  18.7 °C 60.4 °F /  15.8 °C 30in /  1015.5hPa Calm   3.5mph /  5.6km/h 83% 0in /  0.0mm
04:39 65.8 °F /  18.8 °C 60.4 °F /  15.8 °C 30in /  1015.4hPa Sur 0.3mph /  0.5km/h 3mph /  4.8km/h 83% 0in /  0.0mm
04:44 65.8 °F /  18.8 °C 60.4 °F /  15.8 °C 30in /  1015.4hPa Sur 1.8mph /  2.9km/h 3mph /  4.8km/h 83% 0in /  0.0mm
04:49 65.8 °F /  18.8 °C 60.4 °F /  15.8 °C 30in /  1015.4hPa Sur 1.7mph /  2.8km/h 4.3mph /  6.9km/h 83% 0in /  0.0mm
04:54 65.8 °F /  18.8 °C 60.6 °F /  15.9 °C 30in /  1015.3hPa SSO 1.4mph /  2.2km/h 5mph /  8km/h 83% 0in /  0.0mm
04:59 66 °F /  18.9 °C 60.6 °F /  15.9 °C 30in /  1015.3hPa SSO 1.6mph /  2.5km/h 5mph /  8km/h 83% 0in /  0.0mm
05:04 66 °F /  18.9 °C 60.6 °F /  15.9 °C 30in /  1015.3hPa SSO 2mph /  3.2km/h 4mph /  6.4km/h 83% 0in /  0.0mm
05:09 66 °F /  18.9 °C 60.6 °F /  15.9 °C 30in /  1015.3hPa SSO 2mph /  3.2km/h 3.5mph /  5.6km/h 83% 0in /  0.0mm
05:14 66 °F /  18.9 °C 60.4 °F /  15.8 °C 30in /  1015.3hPa SSO 1.8mph /  2.9km/h 3mph /  4.8km/h 82.2% 0in /  0.0mm
05:19 66 °F /  18.9 °C 60.4 °F /  15.8 °C 30in /  1015.3hPa SSO 1.5mph /  2.4km/h 2mph /  3.2km/h 82% 0in /  0.0mm
05:24 65.8 °F /  18.8 °C 60.3 °F /  15.7 °C 30in /  1015.3hPa Calm   1.4mph /  2.3km/h 82% 0in /  0.0mm
05:29 65.8 °F /  18.8 °C 60.4 °F /  15.8 °C 30in /  1015.3hPa Calm   2.3mph /  3.7km/h 82.9% 0in /  0.0mm
05:34 65.7 °F /  18.7 °C 60.4 °F /  15.8 °C 30in /  1015.3hPa Calm   2.3mph /  3.7km/h 83% 0in /  0.0mm
05:39 65.7 °F /  18.7 °C 60.4 °F /  15.8 °C 30in /  1015.1hPa SE 0.2mph /  0.4km/h 3.6mph /  5.8km/h 83% 0in /  0.0mm
05:44 65.5 °F /  18.6 °C 60.3 °F /  15.7 °C 30in /  1015.1hPa SE 1.4mph /  2.2km/h 4mph /  6.4km/h 83% 0in /  0.0mm
05:49 65.5 °F /  18.6 °C 60.3 °F /  15.7 °C 30in /  1015.1hPa SE 1.5mph /  2.4km/h 4.6mph /  7.4km/h 83% 0in /  0.0mm
05:54 65.5 °F /  18.6 °C 60.3 °F /  15.7 °C 30in /  1015.1hPa SSE 1.8mph /  2.9km/h 5mph /  8km/h 83% 0in /  0.0mm
05:59 65.5 °F /  18.6 °C 60.3 °F /  15.7 °C 30in /  1015.1hPa SSE 1.8mph /  2.9km/h 4mph /  6.4km/h 83% 0in /  0.0mm
06:04 65.5 °F /  18.6 °C 60.3 °F /  15.7 °C 30in /  1015.2hPa SSE 1.8mph /  2.9km/h 3mph /  4.8km/h 83% 0in /  0.0mm
06:09 65.5 °F /  18.6 °C 60.3 °F /  15.7 °C 30in /  1015.2hPa SSE 1.8mph /  2.9km/h 3.1mph /  5km/h 83% 0in /  0.0mm
06:14 65.3 °F /  18.5 °C 60.1 °F /  15.6 °C 30in /  1015.2hPa SSE 1.8mph /  2.9km/h 3.5mph /  5.6km/h 83% 0in /  0.0mm
06:19 65.3 °F /  18.5 °C 60.1 °F /  15.6 °C 30in /  1015.3hPa SSE 1.5mph /  2.4km/h 2.9mph /  4.7km/h 83.4% 0in /  0.0mm
06:24 65.1 °F /  18.4 °C 60.3 °F /  15.7 °C 30in /  1015.3hPa Calm   3.5mph /  5.6km/h 84% 0in /  0.0mm
06:29 65.1 °F /  18.4 °C 60.3 °F /  15.7 °C 30in /  1015.3hPa SO 0.4mph /  0.6km/h 3.1mph /  5km/h 84% 0in /  0.0mm
06:34 65.1 °F /  18.4 °C 60.3 °F /  15.7 °C 30in /  1015.3hPa SO 2mph /  3.2km/h 3.5mph /  5.6km/h 84% 0in /  0.0mm
06:39 64.9 °F /  18.3 °C 60.1 °F /  15.6 °C 30in /  1015.3hPa OSO 2mph /  3.2km/h 3.6mph /  5.8km/h 84% 0in /  0.0mm
06:44 65.1 °F /  18.4 °C 60.3 °F /  15.7 °C 30in /  1015.3hPa OSO 1.8mph /  2.9km/h 4mph /  6.4km/h 84.2% 0in /  0.0mm
06:49 65.1 °F /  18.4 °C 60.3 °F /  15.7 °C 30in /  1015.4hPa OSO 1.7mph /  2.8km/h 3mph /  4.8km/h 84.1% 0in /  0.0mm
06:54 65.1 °F /  18.4 °C 60.3 °F /  15.7 °C 30in /  1015.4hPa SSO 1.4mph /  2.2km/h 3.5mph /  5.6km/h 84% 0in /  0.0mm
06:59 65.1 °F /  18.4 °C 60.3 °F /  15.7 °C 30in /  1015.4hPa ESE 1.5mph /  2.4km/h 3.5mph /  5.6km/h 84% 0in /  0.0mm
07:04 64.9 °F /  18.3 °C 60.1 °F /  15.6 °C 30in /  1015.4hPa ESE 1.8mph /  2.9km/h 3mph /  4.8km/h 84% 0in /  0.0mm
07:09 64.9 °F /  18.3 °C 60.1 °F /  15.6 °C 30in /  1015.2hPa ESE 1.8mph /  2.9km/h 4mph /  6.4km/h 84% 0in /  0.0mm
07:14 64.9 °F /  18.3 °C 60.1 °F /  15.6 °C 30in /  1015.2hPa Sur 1.8mph /  2.9km/h 5mph /  8km/h 84% 0in /  0.0mm
07:19 64.9 °F /  18.3 °C 60.1 °F /  15.6 °C 30in /  1015.4hPa SSO 2mph /  3.2km/h 5.2mph /  8.4km/h 84% 0in /  0.0mm
07:24 64.9 °F /  18.3 °C 60.1 °F /  15.6 °C 30in /  1015.4hPa Sur 2.9mph /  4.7km/h 5.9mph /  9.5km/h 84% 0in /  0.0mm
07:29 64.9 °F /  18.3 °C 60.1 °F /  15.6 °C 30in /  1015.4hPa SSO 3.2mph /  5.1km/h 7.6mph /  12.2km/h 84% 0in /  0.0mm
07:34 64.9 °F /  18.3 °C 60.1 °F /  15.6 °C 30in /  1015.4hPa SSO 4.3mph /  6.9km/h 8.1mph /  13km/h 84% 0in /  0.0mm
07:39 64.9 °F /  18.3 °C 60.1 °F /  15.6 °C 30in /  1015.3hPa SSO 4.3mph /  6.9km/h 8mph /  12.9km/h 84% 0in /  0.0mm
07:44 65.1 °F /  18.4 °C 60.1 °F /  15.6 °C 30in /  1015.3hPa SSO 4.3mph /  6.9km/h 6mph /  9.7km/h 84% 0in /  0.0mm
07:49 65.1 °F /  18.4 °C 60.3 °F /  15.7 °C 30in /  1015.3hPa Sur 4.1mph /  6.6km/h 5.9mph /  9.5km/h 84% 0in /  0.0mm
07:54 64.9 °F /  18.3 °C 60.1 °F /  15.6 °C 30in /  1015.2hPa SE 2.9mph /  4.7km/h 6mph /  9.7km/h 84% 0in /  0.0mm
07:59 64.9 °F /  18.3 °C 59.9 °F /  15.5 °C 30in /  1015.2hPa SE 3mph /  4.9km/h 5.9mph /  9.5km/h 84% 0in /  0.0mm
08:04 64.8 °F /  18.2 °C 59.7 °F /  15.4 °C 30in /  1015.2hPa SE 3.6mph /  5.8km/h 6.9mph /  11.1km/h 84% 0in /  0.0mm
08:09 64.6 °F /  18.1 °C 59.5 °F /  15.3 °C 30in /  1015.1hPa Sur 3.4mph /  5.4km/h 7mph /  11.3km/h 84% 0in /  0.0mm
08:14 64.6 °F /  18.1 °C 59.7 °F /  15.4 °C 30in /  1015.1hPa Sur 2.4mph /  3.9km/h 3.6mph /  5.8km/h 84.5% 0in /  0.0mm
08:19 64.6 °F /  18.1 °C 60.1 °F /  15.6 °C 30in /  1015.3hPa SO 2.4mph /  3.9km/h 4.7mph /  7.6km/h 85% 0in /  0.0mm
08:24 64.6 °F /  18.1 °C 60.1 °F /  15.6 °C 30in /  1015.3hPa NO 2.4mph /  3.9km/h 5mph /  8km/h 85% 0in /  0.0mm
08:29 64.6 °F /  18.1 °C 59.9 °F /  15.5 °C 30in /  1015.3hPa NO 2.4mph /  3.9km/h 5mph /  8km/h 85% 0in /  0.0mm
08:34 64.4 °F /  18 °C 59.9 °F /  15.5 °C 30in /  1015.3hPa NO 2.4mph /  3.9km/h 5mph /  8km/h 85% 0in /  0.0mm
08:39 64.4 °F /  18 °C 59.9 °F /  15.5 °C 30in /  1015.3hPa NO 2mph /  3.2km/h 3mph /  4.8km/h 85% 0in /  0.0mm
08:44 64.6 °F /  18.1 °C 60.1 °F /  15.6 °C 30in /  1015.3hPa Calm   2.9mph /  4.7km/h 85% 0in /  0.0mm
08:49 64.8 °F /  18.2 °C 60.1 °F /  15.6 °C 30in /  1015.5hPa ESE 0.3mph /  0.5km/h 3.6mph /  5.8km/h 85% 0in /  0.0mm
08:54 64.9 °F /  18.3 °C 60.1 °F /  15.6 °C 30in /  1015.5hPa ESE 1.4mph /  2.2km/h 4.6mph /  7.4km/h 84.4% 0in /  0.0mm
08:59 65.1 °F /  18.4 °C 59.9 °F /  15.5 °C 30in /  1015.5hPa SE 1.7mph /  2.8km/h 5.9mph /  9.5km/h 83.3% 0in /  0.0mm
09:04 65.1 °F /  18.4 °C 59.7 °F /  15.4 °C 30in /  1015.6hPa SSE 3.1mph /  5km/h 6.9mph /  11.1km/h 83% 0in /  0.0mm
09:09 65.1 °F /  18.4 °C 59.7 °F /  15.4 °C 30in /  1015.6hPa SSE 3.2mph /  5.2km/h 7mph /  11.3km/h 83% 0in /  0.0mm
09:14 65.1 °F /  18.4 °C 60.1 °F /  15.6 °C 30in /  1015.6hPa SE 4mph /  6.4km/h 6mph /  9.7km/h 83.8% 0in /  0.0mm
09:19 65.3 °F /  18.5 °C 60.3 °F /  15.7 °C 30in /  1015.8hPa Sur 3.9mph /  6.3km/h 6mph /  9.7km/h 83.4% 0in /  0.0mm
09:24 65.7 °F /  18.7 °C 60.3 °F /  15.7 °C 30in /  1015.8hPa Sur 3.6mph /  5.8km/h 6mph /  9.7km/h 83% 0in /  0.0mm
09:29 65.8 °F /  18.8 °C 60.6 °F /  15.9 °C 30in /  1015.8hPa Sur 3.5mph /  5.6km/h 6mph /  9.7km/h 83% 0in /  0.0mm
09:34 66.2 °F /  19 °C 60.6 °F /  15.9 °C 30in /  1016.1hPa OSO 3.1mph /  5km/h 5.2mph /  8.4km/h 82.2% 0in /  0.0mm
09:39 66.6 °F /  19.2 °C 60.8 °F /  16 °C 30in /  1016.1hPa SO 3mph /  4.9km/h 5.2mph /  8.4km/h 81.9% 0in /  0.0mm
09:44 66.9 °F /  19.4 °C 60.8 °F /  16 °C 30in /  1016.1hPa SSO 2.9mph /  4.7km/h 5mph /  8km/h 81% 0in /  0.0mm
09:49 67.3 °F /  19.6 °C 60.8 °F /  16 °C 30in /  1016.3hPa OSO 2.9mph /  4.7km/h 5mph /  8km/h 80% 0in /  0.0mm
09:54 67.5 °F /  19.7 °C 61 °F /  16.1 °C 30in /  1016.3hPa SSO 2.9mph /  4.7km/h 6.9mph /  11.1km/h 79.7% 0in /  0.0mm
09:59 67.6 °F /  19.8 °C 61 °F /  16.1 °C 30in /  1016.3hPa SSO 2.9mph /  4.7km/h 7mph /  11.3km/h 79% 0in /  0.0mm
10:04 67.8 °F /  19.9 °C 61 °F /  16.1 °C 30in /  1016.3hPa SSO 3.1mph /  5km/h 6mph /  9.7km/h 79% 0in /  0.0mm
10:09 67.8 °F /  19.9 °C 61.2 °F /  16.2 °C 30in /  1016.3hPa Sur 3.2mph /  5.1km/h 6.9mph /  11.1km/h 78.7% 0in /  0.0mm
10:14 68.2 °F /  20.1 °C 61 °F /  16.1 °C 30in /  1016.3hPa SSE 3.6mph /  5.8km/h 7mph /  11.3km/h 78% 0in /  0.0mm
10:19 68.4 °F /  20.2 °C 61.2 °F /  16.2 °C 30in /  1016.3hPa Sur 3.7mph /  6km/h 7mph /  11.3km/h 78% 0in /  0.0mm
10:24 68.5 °F /  20.3 °C 61.3 °F /  16.3 °C 30in /  1016.3hPa SSE 4.3mph /  6.9km/h 6mph /  9.7km/h 77.8% 0in /  0.0mm
10:29 68.7 °F /  20.4 °C 61.2 °F /  16.2 °C 30in /  1016.3hPa SSE 4.2mph /  6.7km/h 6mph /  9.7km/h 77% 0in /  0.0mm
10:34 69.1 °F /  20.6 °C 61.5 °F /  16.4 °C 30in /  1016.3hPa Sur 3.6mph /  5.8km/h 6.2mph /  10km/h 76.8% 0in /  0.0mm
10:39 69.1 °F /  20.6 °C 61.3 °F /  16.3 °C 30in /  1016.3hPa SO 3.7mph /  5.9km/h 6mph /  9.7km/h 76.1% 0in /  0.0mm
10:44 69.1 °F /  20.6 °C 61.7 °F /  16.5 °C 30in /  1016.3hPa Oeste 4mph /  6.4km/h 6mph /  9.7km/h 77.3% 0in /  0.0mm
10:49 69.4 °F /  20.8 °C 61.5 °F /  16.4 °C 30in /  1016.3hPa SSO 3.7mph /  5.9km/h 5.2mph /  8.4km/h 76.3% 0in /  0.0mm
10:54 69.8 °F /  21 °C 61.7 °F /  16.5 °C 30in /  1016.3hPa OSO 2.4mph /  3.9km/h 5mph /  8km/h 75.6% 0in /  0.0mm
10:59 70 °F /  21.1 °C 61.7 °F /  16.5 °C 30in /  1016.3hPa ONO 2.4mph /  3.9km/h 5mph /  8km/h 75% 0in /  0.0mm
11:04 70.2 °F /  21.2 °C 61.9 °F /  16.6 °C 30in /  1016.3hPa Oeste 2.4mph /  3.9km/h 4.6mph /  7.4km/h 75% 0in /  0.0mm
11:09 70.2 °F /  21.2 °C 61.9 °F /  16.6 °C 30in /  1016.3hPa Oeste 2.4mph /  3.9km/h 5mph /  8km/h 75% 0in /  0.0mm
11:14 70.2 °F /  21.2 °C 61.9 °F /  16.6 °C 30in /  1016.3hPa Oeste 2.4mph /  3.9km/h 5mph /  8km/h 75% 0in /  0.0mm
11:19 70.2 °F /  21.2 °C 61.7 °F /  16.5 °C 30in /  1016.3hPa ONO 2.3mph /  3.7km/h 3.6mph /  5.8km/h 74.4% 0in /  0.0mm
11:24 70.3 °F /  21.3 °C 61.7 °F /  16.5 °C 30in /  1016.3hPa NO 1.8mph /  2.9km/h 4.6mph /  7.4km/h 74% 0in /  0.0mm
11:29 70.5 °F /  21.4 °C 61.9 °F /  16.6 °C 30in /  1016.3hPa ONO 1.8mph /  2.9km/h 5mph /  8km/h 74% 0in /  0.0mm
11:34 70.9 °F /  21.6 °C 61.7 °F /  16.5 °C 30in /  1016.3hPa ONO 1.8mph /  2.9km/h 4.6mph /  7.4km/h 73% 0in /  0.0mm
11:39 70.9 °F /  21.6 °C 61.9 °F /  16.6 °C 30in /  1016.3hPa ONO 1.9mph /  3km/h 5mph /  8km/h 73% 0in /  0.0mm
11:44 71.1 °F /  21.7 °C 62.1 °F /  16.7 °C 30in /  1016.3hPa NO 2mph /  3.2km/h 5mph /  8km/h 73% 0in /  0.0mm
11:49 71.2 °F /  21.8 °C 61.9 °F /  16.6 °C 30in /  1016.3hPa ONO 2.1mph /  3.3km/h 5mph /  8km/h 72.5% 0in /  0.0mm
11:54 71.6 °F /  22 °C 62.1 °F /  16.7 °C 30in /  1016.1hPa Oeste 2.4mph /  3.9km/h 5mph /  8km/h 72% 0in /  0.0mm
11:59 72 °F /  22.2 °C 62.1 °F /  16.7 °C 30in /  1016.1hPa OSO 2.4mph /  3.9km/h 5mph /  8km/h 71.5% 0in /  0.0mm
12:04 72.1 °F /  22.3 °C 62.2 °F /  16.8 °C 30in /  1016.1hPa SSO 2.4mph /  3.9km/h 5mph /  8km/h 71% 0in /  0.0mm
12:09 72.9 °F /  22.7 °C 62.2 °F /  16.8 °C 30in /  1015.9hPa SE 2.3mph /  3.7km/h 4.6mph /  7.4km/h 69.4% 0in /  0.0mm
12:14 73.6 °F /  23.1 °C 62.2 °F /  16.8 °C 30in /  1015.9hPa OSO 2mph /  3.2km/h 5mph /  8km/h 68% 0in /  0.0mm
12:19 73.9 °F /  23.3 °C 62.4 °F /  16.9 °C 30in /  1015.9hPa ONO 2mph /  3.2km/h 5.2mph /  8.4km/h 67.5% 0in /  0.0mm
12:24 74.1 °F /  23.4 °C 62.4 °F /  16.9 °C 30in /  1015.9hPa NO 2mph /  3.2km/h 5.2mph /  8.4km/h 67% 0in /  0.0mm
12:29 74.7 °F /  23.7 °C 63 °F /  17.2 °C 30in /  1015.9hPa NNE 2mph /  3.2km/h 5.9mph /  9.5km/h 66.9% 0in /  0.0mm
12:34 74.8 °F /  23.8 °C 62.8 °F /  17.1 °C 30in /  1015.9hPa NNE 2mph /  3.2km/h 6mph /  9.7km/h 66.2% 0in /  0.0mm
12:39 75 °F /  23.9 °C 62.8 °F /  17.1 °C 30in /  1015.9hPa North 2.3mph /  3.7km/h 6.9mph /  11.1km/h 65.7% 0in /  0.0mm
12:44 75 °F /  23.9 °C 62.6 °F /  17 °C 30in /  1015.9hPa NE 3.6mph /  5.8km/h 7mph /  11.3km/h 65.2% 0in /  0.0mm
12:49 75.4 °F /  24.1 °C 62.8 °F /  17.1 °C 30in /  1015.9hPa NNE 3.5mph /  5.6km/h 6mph /  9.7km/h 64.8% 0in /  0.0mm
12:54 75.6 °F /  24.2 °C 62.4 °F /  16.9 °C 30in /  1015.9hPa Este 2.9mph /  4.7km/h 8.1mph /  13km/h 64% 0in /  0.0mm
12:59 75.7 °F /  24.3 °C 62.8 °F /  17.1 °C 30in /  1015.9hPa SE 3mph /  4.9km/h 8mph /  12.9km/h 64% 0in /  0.0mm
13:04 76.3 °F /  24.6 °C 62.8 °F /  17.1 °C 30in /  1015.9hPa NE 3.6mph /  5.8km/h 5mph /  8km/h 63% 0in /  0.0mm
13:09 76.6 °F /  24.8 °C 63 °F /  17.2 °C 30in /  1015.7hPa ENE 3.5mph /  5.6km/h 6.9mph /  11.1km/h 62.6% 0in /  0.0mm
13:14 76.8 °F /  24.9 °C 63 °F /  17.2 °C 30in /  1015.7hPa NE 2.9mph /  4.7km/h 7mph /  11.3km/h 62.5% 0in /  0.0mm
13:19 77 °F /  25 °C 63 °F /  17.2 °C 30in /  1015.7hPa NNO 2.9mph /  4.6km/h 7mph /  11.3km/h 62% 0in /  0.0mm
13:24 77.4 °F /  25.2 °C 63.1 °F /  17.3 °C 30in /  1015.6hPa NNO 2.9mph /  4.7km/h 5.9mph /  9.5km/h 61.6% 0in /  0.0mm
13:29 77.5 °F /  25.3 °C 63 °F /  17.2 °C 30in /  1015.6hPa ENE 2.8mph /  4.5km/h 6mph /  9.7km/h 61% 0in /  0.0mm
13:34 77.9 °F /  25.5 °C 63 °F /  17.2 °C 30in /  1015.6hPa ESE 2.4mph /  3.9km/h 5mph /  8km/h 60.3% 0in /  0.0mm
13:39 77.9 °F /  25.5 °C 63.1 °F /  17.3 °C 30in /  1015.4hPa NNO 2.4mph /  3.9km/h 5mph /  8km/h 60.4% 0in /  0.0mm
13:44 78.3 °F /  25.7 °C 63.3 °F /  17.4 °C 30in /  1015.4hPa ESE 2.4mph /  3.9km/h 6.4mph /  10.3km/h 60.2% 0in /  0.0mm
13:49 78.6 °F /  25.9 °C 63.1 °F /  17.3 °C 30in /  1015.4hPa Este 2.5mph /  4km/h 7mph /  11.3km/h 59.1% 0in /  0.0mm
13:54 78.6 °F /  25.9 °C 63.3 °F /  17.4 °C 30in /  1015.1hPa ENE 2.9mph /  4.7km/h 7mph /  11.3km/h 59.5% 0in /  0.0mm
13:59 78.6 °F /  25.9 °C 63.3 °F /  17.4 °C 30in /  1015.1hPa NE 3mph /  4.9km/h 6.9mph /  11.1km/h 59.4% 0in /  0.0mm
14:04 78.6 °F /  25.9 °C 63.3 °F /  17.4 °C 30in /  1015.1hPa NE 3.6mph /  5.8km/h 9.2mph /  14.8km/h 59.3% 0in /  0.0mm
14:09 78.6 °F /  25.9 °C 63.3 °F /  17.4 °C 30in /  1014.8hPa ENE 3.6mph /  5.8km/h 9mph /  14.5km/h 59.6% 0in /  0.0mm
14:14 78.8 °F /  26 °C 63.5 °F /  17.5 °C 30in /  1014.8hPa NE 3.6mph /  5.8km/h 7mph /  11.3km/h 59.6% 0in /  0.0mm
14:19 79.2 °F /  26.2 °C 63.7 °F /  17.6 °C 30in /  1014.8hPa Este 3.7mph /  5.9km/h 8.1mph /  13km/h 59.2% 0in /  0.0mm
14:24 79.2 °F /  26.2 °C 63.5 °F /  17.5 °C 30in /  1014.6hPa SSO 4mph /  6.4km/h 8mph /  12.9km/h 59% 0in /  0.0mm
14:29 79.3 °F /  26.3 °C 63.7 °F /  17.6 °C 30in /  1014.6hPa NO 3.7mph /  5.9km/h 5.9mph /  9.5km/h 58.9% 0in /  0.0mm
14:34 79.7 °F /  26.5 °C 63.7 °F /  17.6 °C 30in /  1014.6hPa NNE 2mph /  3.2km/h 7.4mph /  11.9km/h 58.4% 0in /  0.0mm
14:39 80.1 °F /  26.7 °C 63.7 °F /  17.6 °C 30in /  1014.4hPa NE 2.4mph /  3.8km/h 7.4mph /  11.9km/h 57.4% 0in /  0.0mm
14:44 80.1 °F /  26.7 °C 63.5 °F /  17.5 °C 30in /  1014.4hPa Este 4mph /  6.4km/h 7mph /  11.3km/h 57.1% 0in /  0.0mm
14:49 80.2 °F /  26.8 °C 63.5 °F /  17.5 °C 30in /  1014.4hPa ENE 4mph /  6.5km/h 8.1mph /  13km/h 57% 0in /  0.0mm
14:54 80.2 °F /  26.8 °C 63.5 °F /  17.5 °C 30in /  1014.3hPa ESE 4mph /  6.5km/h 8.1mph /  13km/h 56.9% 0in /  0.0mm
14:59 80.4 °F /  26.9 °C 63.5 °F /  17.5 °C 30in /  1014.3hPa ENE 4mph /  6.5km/h 8.1mph /  13km/h 56.2% 0in /  0.0mm
15:04 80.4 °F /  26.9 °C 63.5 °F /  17.5 °C 30in /  1014.3hPa ENE 4mph /  6.5km/h 9.2mph /  14.8km/h 56.5% 0in /  0.0mm
15:09 80.2 °F /  26.8 °C 63.5 °F /  17.5 °C 30in /  1014.2hPa NE 4.3mph /  6.9km/h 10.7mph /  17.2km/h 56.7% 0in /  0.0mm
15:14 80.2 °F /  26.8 °C 63.3 °F /  17.4 °C 30in /  1014.2hPa NNE 5.4mph /  8.7km/h 11mph /  17.7km/h 56.5% 0in /  0.0mm
15:19 80.2 °F /  26.8 °C 63.5 °F /  17.5 °C 30in /  1014.2hPa NNE 5.2mph /  8.4km/h 8.5mph /  13.7km/h 56.7% 0in /  0.0mm
15:24 80.2 °F /  26.8 °C 63.7 °F /  17.6 °C 29.9in /  1014.0hPa ENE 4.3mph /  6.9km/h 9mph /  14.5km/h 56.8% 0in /  0.0mm
15:29 80.6 °F /  27 °C 63.5 °F /  17.5 °C 29.9in /  1014.0hPa NNE 4.4mph /  7.1km/h 10.7mph /  17.2km/h 56.2% 0in /  0.0mm
15:34 80.6 °F /  27 °C 63.5 °F /  17.5 °C 29.9in /  1014.0hPa NE 4.7mph /  7.6km/h 12.7mph /  20.4km/h 56% 0in /  0.0mm
15:39 80.8 °F /  27.1 °C 63.3 °F /  17.4 °C 29.9in /  1013.9hPa NE 4.8mph /  7.8km/h 13mph /  20.9km/h 55.4% 0in /  0.0mm
15:44 81 °F /  27.2 °C 63.1 °F /  17.3 °C 29.9in /  1013.9hPa ENE 5.4mph /  8.7km/h 9mph /  14.5km/h 55% 0in /  0.0mm
15:49 81 °F /  27.2 °C 63.5 °F /  17.5 °C 29.9in /  1013.9hPa NE 5.2mph /  8.4km/h 9.7mph /  15.6km/h 55.4% 0in /  0.0mm
15:54 81.1 °F /  27.3 °C 63.5 °F /  17.5 °C 29.9in /  1013.8hPa NNE 4.3mph /  6.9km/h 10.4mph /  16.7km/h 55% 0in /  0.0mm
15:59 81.3 °F /  27.4 °C 63.5 °F /  17.5 °C 29.9in /  1013.8hPa NNE 4.7mph /  7.5km/h 10.4mph /  16.7km/h 54.7% 0in /  0.0mm
16:04 81.3 °F /  27.4 °C 63.7 °F /  17.6 °C 29.9in /  1013.8hPa NNE 5.9mph /  9.5km/h 8mph /  12.9km/h 54.9% 0in /  0.0mm
16:09 81.9 °F /  27.7 °C 63.7 °F /  17.6 °C 29.9in /  1013.7hPa North 5.5mph /  8.9km/h 8.5mph /  13.7km/h 54.3% 0in /  0.0mm
16:14 82 °F /  27.8 °C 63.3 °F /  17.4 °C 29.9in /  1013.7hPa ENE 3.6mph /  5.8km/h 9.2mph /  14.8km/h 53% 0in /  0.0mm
16:19 82.4 °F /  28 °C 63.3 °F /  17.4 °C 29.9in /  1013.7hPa Este 3.7mph /  5.9km/h 9mph /  14.5km/h 52.5% 0in /  0.0mm
16:24 82.6 °F /  28.1 °C 63 °F /  17.2 °C 29.9in /  1013.6hPa SSE 4mph /  6.4km/h 9mph /  14.5km/h 51.6% 0in /  0.0mm
16:29 82.8 °F /  28.2 °C 62.8 °F /  17.1 °C 29.9in /  1013.6hPa ESE 3.9mph /  6.2km/h 7.4mph /  11.9km/h 51.1% 0in /  0.0mm
16:34 82.8 °F /  28.2 °C 62.8 °F /  17.1 °C 29.9in /  1013.6hPa ENE 3.1mph /  5km/h 10.4mph /  16.7km/h 51% 0in /  0.0mm
16:39 82.8 °F /  28.2 °C 62.8 °F /  17.1 °C 29.9in /  1013.4hPa ESE 3.5mph /  5.6km/h 11.5mph /  18.5km/h 50.9% 0in /  0.0mm
16:44 82.6 °F /  28.1 °C 62.6 °F /  17 °C 29.9in /  1013.4hPa SSE 5.2mph /  8.4km/h 12mph /  19.3km/h 50.8% 0in /  0.0mm
16:49 82.6 °F /  28.1 °C 62.4 °F /  16.9 °C 29.9in /  1013.4hPa Este 5.3mph /  8.5km/h 9mph /  14.5km/h 50.8% 0in /  0.0mm
16:54 82.2 °F /  27.9 °C 62.4 °F /  16.9 °C 29.9in /  1013.3hPa Este 5.9mph /  9.5km/h 9.2mph /  14.8km/h 51% 0in /  0.0mm
16:59 82.6 °F /  28.1 °C 62.6 °F /  17 °C 29.9in /  1013.3hPa Este 5.2mph /  8.4km/h 8mph /  12.9km/h 51.1% 0in /  0.0mm
17:04 82.8 °F /  28.2 °C 62.2 °F /  16.8 °C 29.9in /  1013.3hPa SSO 2.9mph /  4.7km/h 5mph /  8km/h 50% 0in /  0.0mm
17:09 83.1 °F /  28.4 °C 62.6 °F /  17 °C 29.9in /  1013.3hPa ONO 2.8mph /  4.5km/h 6.2mph /  10km/h 50% 0in /  0.0mm
17:14 83.5 °F /  28.6 °C 62.4 °F /  16.9 °C 29.9in /  1013.3hPa SSE 2.4mph /  3.9km/h 8.1mph /  13km/h 49.3% 0in /  0.0mm
17:19 83.5 °F /  28.6 °C 62.4 °F /  16.9 °C 29.9in /  1013.3hPa ESE 2.7mph /  4.4km/h 8mph /  12.9km/h 49.1% 0in /  0.0mm
17:24 83.1 °F /  28.4 °C 62.6 °F /  17 °C 29.9in /  1013.3hPa NE 4.3mph /  6.9km/h 7mph /  11.3km/h 49.9% 0in /  0.0mm
17:29 83.1 °F /  28.4 °C 63.5 °F /  17.5 °C 29.9in /  1013.3hPa NO 4.1mph /  6.6km/h 6.9mph /  11.1km/h 51.8% 0in /  0.0mm
17:34 83.1 °F /  28.4 °C 63.7 °F /  17.6 °C 29.9in /  1013.3hPa Sur 3.1mph /  5km/h 7mph /  11.3km/h 52.1% 0in /  0.0mm
17:39 82.9 °F /  28.3 °C 62.8 °F /  17.1 °C 29.9in /  1013.2hPa Este 3.2mph /  5.1km/h 7.4mph /  11.9km/h 50.6% 0in /  0.0mm
17:44 82.6 °F /  28.1 °C 63.7 °F /  17.6 °C 29.9in /  1013.2hPa NNE 3.6mph /  5.8km/h 12.7mph /  20.4km/h 52.8% 0in /  0.0mm
17:49 81.9 °F /  27.7 °C 64.6 °F /  18.1 °C 29.9in /  1013.2hPa NNE 4.2mph /  6.7km/h 13mph /  20.9km/h 56% 0in /  0.0mm
17:54 81.3 °F /  27.4 °C 64.8 °F /  18.2 °C 29.9in /  1013.1hPa NNE 6.9mph /  11.1km/h 12.7mph /  20.4km/h 57.5% 0in /  0.0mm
17:59 81 °F /  27.2 °C 64.9 °F /  18.3 °C 29.9in /  1013.1hPa NE 7.1mph /  11.4km/h 13mph /  20.9km/h 58.1% 0in /  0.0mm
18:04 80.8 °F /  27.1 °C 65.1 °F /  18.4 °C 29.9in /  1013.1hPa NNE 7.6mph /  12.2km/h 13mph /  20.9km/h 59% 0in /  0.0mm
18:09 80.8 °F /  27.1 °C 64.9 °F /  18.3 °C 29.9in /  1013.1hPa NE 7.3mph /  11.8km/h 12mph /  19.3km/h 58.5% 0in /  0.0mm
18:14 81 °F /  27.2 °C 64.9 °F /  18.3 °C 29.9in /  1013.1hPa Este 5.9mph /  9.5km/h 10mph /  16.1km/h 58.3% 0in /  0.0mm
18:19 81 °F /  27.2 °C 64.9 °F /  18.3 °C 29.9in /  1013.2hPa ESE 5.8mph /  9.4km/h 11.5mph /  18.5km/h 58% 0in /  0.0mm
18:24 81 °F /  27.2 °C 64.8 °F /  18.2 °C 29.9in /  1013.2hPa SE 5.4mph /  8.7km/h 12mph /  19.3km/h 58.3% 0in /  0.0mm
18:29 80.4 °F /  26.9 °C 64.8 °F /  18.2 °C 29.9in /  1013.2hPa SE 5.8mph /  9.3km/h 12mph /  19.3km/h 58.9% 0in /  0.0mm
18:34 80.4 °F /  26.9 °C 64.8 °F /  18.2 °C 29.9in /  1013.3hPa SE 7.4mph /  11.9km/h 12.3mph /  19.8km/h 59% 0in /  0.0mm
18:39 80.2 °F /  26.8 °C 64.6 °F /  18.1 °C 29.9in /  1013.3hPa SE 7.2mph /  11.6km/h 12mph /  19.3km/h 59% 0in /  0.0mm
18:44 79.9 °F /  26.6 °C 64.8 °F /  18.2 °C 29.9in /  1013.3hPa ESE 6.4mph /  10.3km/h 12mph /  19.3km/h 59.9% 0in /  0.0mm
18:49 79.5 °F /  26.4 °C 64.6 °F /  18.1 °C 29.9in /  1013.5hPa ESE 6.5mph /  10.5km/h 11.5mph /  18.5km/h 60.3% 0in /  0.0mm
18:54 79.3 °F /  26.3 °C 64.6 °F /  18.1 °C 29.9in /  1013.5hPa ESE 6.9mph /  11.1km/h 12mph /  19.3km/h 61% 0in /  0.0mm
18:59 79.2 °F /  26.2 °C 64.4 °F /  18 °C 29.9in /  1013.5hPa ESE 6.7mph /  10.8km/h 11.5mph /  18.5km/h 61% 0in /  0.0mm
19:04 78.6 °F /  25.9 °C 64.6 °F /  18.1 °C 29.9in /  1013.7hPa ESE 6.2mph /  10km/h 12mph /  19.3km/h 61.8% 0in /  0.0mm
19:09 78.3 °F /  25.7 °C 64.2 °F /  17.9 °C 29.9in /  1013.7hPa ESE 6.3mph /  10.2km/h 12.7mph /  20.4km/h 62.1% 0in /  0.0mm
19:14 77.9 °F /  25.5 °C 64.2 °F /  17.9 °C 29.9in /  1013.7hPa ESE 6.9mph /  11.1km/h 13mph /  20.9km/h 63% 0in /  0.0mm
19:19 77.5 °F /  25.3 °C 63.9 °F /  17.7 °C 29.9in /  1013.8hPa ESE 6.8mph /  11km/h 13mph /  20.9km/h 63% 0in /  0.0mm
19:24 77.4 °F /  25.2 °C 64 °F /  17.8 °C 29.9in /  1013.8hPa ESE 6.4mph /  10.3km/h 12.7mph /  20.4km/h 63.6% 0in /  0.0mm
19:29 77 °F /  25 °C 63.9 °F /  17.7 °C 29.9in /  1013.8hPa ESE 6.8mph /  10.9km/h 13.8mph /  22.2km/h 64% 0in /  0.0mm
19:34 76.6 °F /  24.8 °C 63.5 °F /  17.5 °C 29.9in /  1014.1hPa ESE 8.5mph /  13.7km/h 15.2mph /  24.5km/h 64.1% 0in /  0.0mm
19:39 76.3 °F /  24.6 °C 63.7 °F /  17.6 °C 29.9in /  1014.1hPa Este 8.3mph /  13.3km/h 15mph /  24.1km/h 65% 0in /  0.0mm
19:44 75.9 °F /  24.4 °C 63.3 °F /  17.4 °C 29.9in /  1014.1hPa Este 7.4mph /  11.9km/h 10.4mph /  16.7km/h 65% 0in /  0.0mm
19:49 75.7 °F /  24.3 °C 63.5 °F /  17.5 °C 30in /  1014.2hPa ENE 7.1mph /  11.4km/h 11.8mph /  19km/h 65.7% 0in /  0.0mm
19:54 75.6 °F /  24.2 °C 63.5 °F /  17.5 °C 30in /  1014.2hPa NE 5.9mph /  9.5km/h 12mph /  19.3km/h 66.2% 0in /  0.0mm
19:59 75.4 °F /  24.1 °C 63.7 °F /  17.6 °C 30in /  1014.2hPa ENE 5.9mph /  9.5km/h 13.8mph /  22.2km/h 67% 0in /  0.0mm
20:04 75 °F /  23.9 °C 63.3 °F /  17.4 °C 30in /  1014.5hPa Este 5.9mph /  9.5km/h 14mph /  22.5km/h 67% 0in /  0.0mm
20:09 74.8 °F /  23.8 °C 63.5 °F /  17.5 °C 30in /  1014.5hPa ENE 6.2mph /  10km/h 13mph /  20.9km/h 68% 0in /  0.0mm
20:14 74.7 °F /  23.7 °C 63.3 °F /  17.4 °C 30in /  1014.5hPa Este 7.4mph /  11.9km/h 13.7mph /  22km/h 68% 0in /  0.0mm
20:19 74.5 °F /  23.6 °C 63.1 °F /  17.3 °C 30in /  1014.6hPa ENE 7.2mph /  11.6km/h 14mph /  22.5km/h 68% 0in /  0.0mm
20:24 74.3 °F /  23.5 °C 63 °F /  17.2 °C 30in /  1014.6hPa ENE 6.4mph /  10.3km/h 13mph /  20.9km/h 68% 0in /  0.0mm
20:29 74.1 °F /  23.4 °C 63 °F /  17.2 °C 30in /  1014.6hPa Este 6.2mph /  10km/h 10mph /  16.1km/h 68.2% 0in /  0.0mm
20:34 73.9 °F /  23.3 °C 63.1 °F /  17.3 °C 30in /  1014.8hPa ENE 5.4mph /  8.7km/h 10mph /  16.1km/h 69% 0in /  0.0mm
20:39 73.8 °F /  23.2 °C 63 °F /  17.2 °C 30in /  1014.8hPa ENE 5.4mph /  8.7km/h 10.7mph /  17.2km/h 69% 0in /  0.0mm
20:44 73.6 °F /  23.1 °C 63.1 °F /  17.3 °C 30in /  1014.8hPa NE 5.4mph /  8.7km/h 11.5mph /  18.5km/h 70% 0in /  0.0mm
20:49 73.6 °F /  23.1 °C 63.3 °F /  17.4 °C 30in /  1015.0hPa NE 5.5mph /  8.9km/h 12mph /  19.3km/h 70.4% 0in /  0.0mm
20:54 73.2 °F /  22.9 °C 63.3 °F /  17.4 °C 30in /  1015.0hPa NE 6.2mph /  10km/h 11mph /  17.7km/h 71.2% 0in /  0.0mm
20:59 73.2 °F /  22.9 °C 63.1 °F /  17.3 °C 30in /  1015.0hPa NE 6.2mph /  9.9km/h 11mph /  17.7km/h 71% 0in /  0.0mm
21:04 73 °F /  22.8 °C 63.1 °F /  17.3 °C 30in /  1015.2hPa NE 5.9mph /  9.5km/h 11.8mph /  19km/h 71% 0in /  0.0mm
21:09 73 °F /  22.8 °C 63.3 °F /  17.4 °C 30in /  1015.2hPa NE 5.9mph /  9.5km/h 12mph /  19.3km/h 71.7% 0in /  0.0mm
21:14 72.9 °F /  22.7 °C 63.5 °F /  17.5 °C 30in /  1015.2hPa NE 5.9mph /  9.5km/h 10.7mph /  17.2km/h 72.1% 0in /  0.0mm
21:19 72.7 °F /  22.6 °C 63.7 °F /  17.6 °C 30in /  1015.3hPa NE 6mph /  9.6km/h 11mph /  17.7km/h 73.5% 0in /  0.0mm
21:24 72.3 °F /  22.4 °C 63.7 °F /  17.6 °C 30in /  1015.3hPa NE 6.4mph /  10.3km/h 10mph /  16.1km/h 74.5% 0in /  0.0mm
21:29 72 °F /  22.2 °C 63.9 °F /  17.7 °C 30in /  1015.3hPa NNE 6.2mph /  10km/h 9.7mph /  15.6km/h 75.5% 0in /  0.0mm
21:34 71.8 °F /  22.1 °C 63.9 °F /  17.7 °C 30in /  1015.4hPa NE 5.4mph /  8.7km/h 10.7mph /  17.2km/h 76% 0in /  0.0mm
21:39 71.6 °F /  22 °C 63.7 °F /  17.6 °C 30in /  1015.4hPa NE 5.6mph /  9km/h 11mph /  17.7km/h 76% 0in /  0.0mm
21:44 71.6 °F /  22 °C 63.7 °F /  17.6 °C 30in /  1015.4hPa NE 6.4mph /  10.3km/h 10mph /  16.1km/h 76.1% 0in /  0.0mm
21:49 71.4 °F /  21.9 °C 63.7 °F /  17.6 °C 30in /  1015.6hPa NE 6.2mph /  10km/h 8mph /  12.9km/h 76.7% 0in /  0.0mm
21:54 71.4 °F /  21.9 °C 63.9 °F /  17.7 °C 30in /  1015.6hPa NE 5.2mph /  8.4km/h 8.1mph /  13km/h 77% 0in /  0.0mm
21:59 71.2 °F /  21.8 °C 63.7 °F /  17.6 °C 30in /  1015.6hPa NE 5.1mph /  8.2km/h 8mph /  12.9km/h 77% 0in /  0.0mm
22:04 71.2 °F /  21.8 °C 63.9 °F /  17.7 °C 30in /  1015.9hPa NE 4.7mph /  7.6km/h 7.4mph /  11.9km/h 77.7% 0in /  0.0mm
22:09 71.1 °F /  21.7 °C 63.9 °F /  17.7 °C 30in /  1015.9hPa NE 4.6mph /  7.4km/h 7.4mph /  11.9km/h 78% 0in /  0.0mm
22:14 70.9 °F /  21.6 °C 63.7 °F /  17.6 °C 30in /  1015.9hPa NE 4.3mph /  6.9km/h 8.1mph /  13km/h 78% 0in /  0.0mm
22:19 70.9 °F /  21.6 °C 63.7 °F /  17.6 °C 30in /  1016.0hPa NE 4.3mph /  7km/h 8.1mph /  13km/h 78% 0in /  0.0mm
22:24 70.9 °F /  21.6 °C 63.7 °F /  17.6 °C 30in /  1016.0hPa NE 4.7mph /  7.6km/h 8mph /  12.9km/h 78% 0in /  0.0mm
22:29 71.1 °F /  21.7 °C 63.9 °F /  17.7 °C 30in /  1016.0hPa NE 4.6mph /  7.4km/h 7mph /  11.3km/h 78% 0in /  0.0mm
22:34 71.1 °F /  21.7 °C 63.9 °F /  17.7 °C 30in /  1016.2hPa NE 4mph /  6.5km/h 7mph /  11.3km/h 78% 0in /  0.0mm
22:39 70.9 °F /  21.6 °C 63.7 °F /  17.6 °C 30in /  1016.2hPa NE 4mph /  6.5km/h 7mph /  11.3km/h 78% 0in /  0.0mm
22:44 70.9 °F /  21.6 °C 63.9 °F /  17.7 °C 30in /  1016.2hPa NE 4.3mph /  6.9km/h 7mph /  11.3km/h 78.7% 0in /  0.0mm
22:49 70.5 °F /  21.4 °C 63.7 °F /  17.6 °C 30in /  1016.5hPa NE 4.2mph /  6.7km/h 7.4mph /  11.9km/h 79% 0in /  0.0mm
22:54 70.3 °F /  21.3 °C 63.9 °F /  17.7 °C 30in /  1016.5hPa NE 3.6mph /  5.8km/h 8.1mph /  13km/h 79.9% 0in /  0.0mm
22:59 70.2 °F /  21.2 °C 63.7 °F /  17.6 °C 30in /  1016.5hPa NE 3.7mph /  6km/h 8mph /  12.9km/h 80% 0in /  0.0mm
23:04 70.2 °F /  21.2 °C 63.9 °F /  17.7 °C 30in /  1016.7hPa NE 4.3mph /  6.9km/h 10.2mph /  16.4km/h 80.3% 0in /  0.0mm
23:09 70 °F /  21.1 °C 63.9 °F /  17.7 °C 30in /  1016.7hPa NE 4.7mph /  7.5km/h 10.4mph /  16.7km/h 81% 0in /  0.0mm
23:14 69.8 °F /  21 °C 63.7 °F /  17.6 °C 30in /  1016.7hPa NE 6.2mph /  10km/h 10mph /  16.1km/h 81% 0in /  0.0mm
23:19 69.8 °F /  21 °C 63.7 °F /  17.6 °C 30in /  1016.8hPa NE 6.2mph /  10km/h 9.7mph /  15.6km/h 81% 0in /  0.0mm
23:24 69.8 °F /  21 °C 63.9 °F /  17.7 °C 30in /  1016.8hPa NE 6.2mph /  10km/h 10mph /  16.1km/h 81.4% 0in /  0.0mm
23:29 69.6 °F /  20.9 °C 64 °F /  17.8 °C 30in /  1016.8hPa NE 6.2mph /  9.9km/h 9mph /  14.5km/h 82% 0in /  0.0mm
23:34 69.6 °F /  20.9 °C 63.9 °F /  17.7 °C 30in /  1016.9hPa NE 5.9mph /  9.5km/h 7mph /  11.3km/h 82% 0in /  0.0mm
23:39 69.4 °F /  20.8 °C 63.9 °F /  17.7 °C 30in /  1016.9hPa NNE 5.6mph /  9km/h 7mph /  11.3km/h 82% 0in /  0.0mm
23:44 69.4 °F /  20.8 °C 63.7 °F /  17.6 °C 30in /  1016.9hPa NE 4.3mph /  6.9km/h 7mph /  11.3km/h 82% 0in /  0.0mm
23:49 69.3 °F /  20.7 °C 63.7 °F /  17.6 °C 30in /  1017.0hPa NNE 4.3mph /  6.9km/h 7mph /  11.3km/h 82.3% 0in /  0.0mm
23:54 69.3 °F /  20.7 °C 63.9 °F /  17.7 °C 30in /  1017.0hPa NE 4mph /  6.5km/h 7mph /  11.3km/h 83% 0in /  0.0mm
23:59 69.1 °F /  20.6 °C 63.7 °F /  17.6 °C 30in /  1017.0hPa NE 4mph /  6.5km/h 6mph /  9.7km/h 83% 0in /  0.0mm
Murcia-Puente Tocinos, España
Compliments of Weather Underground - 3.5 mb

La estación de MeteoMurcia.com, publica sus datos en los siguientes proyectos:

Weather Underground PWS IMURCIAP2 Meteoclimatic www.awekas.at

W3Counter
Web Analytics